sensor_id;sensor_type;location;lat;lon;timestamp;P1;durP1;ratioP1;P2;durP2;ratioP2
5519;SDS011;2782;52.362;10.012;2023-04-06T00:01:01;2.17;;;1.42;;
5519;SDS011;2782;52.362;10.012;2023-04-06T00:02:02;3.20;;;1.50;;
5519;SDS011;2782;52.362;10.012;2023-04-06T00:03:03;1.55;;;1.45;;
5519;SDS011;2782;52.362;10.012;2023-04-06T00:04:04;2.13;;;1.70;;
5519;SDS011;2782;52.362;10.012;2023-04-06T00:05:06;2.50;;;1.50;;
5519;SDS011;2782;52.362;10.012;2023-04-06T00:06:07;1.65;;;1.13;;
5519;SDS011;2782;52.362;10.012;2023-04-06T00:07:09;2.70;;;1.20;;
5519;SDS011;2782;52.362;10.012;2023-04-06T00:08:11;1.30;;;1.20;;
5519;SDS011;2782;52.362;10.012;2023-04-06T00:09:13;4.20;;;1.67;;
5519;SDS011;2782;52.362;10.012;2023-04-06T00:10:13;1.47;;;1.37;;
5519;SDS011;2782;52.362;10.012;2023-04-06T00:11:15;3.65;;;1.30;;
5519;SDS011;2782;52.362;10.012;2023-04-06T00:12:16;2.10;;;1.63;;
5519;SDS011;2782;52.362;10.012;2023-04-06T00:13:18;3.45;;;1.80;;
5519;SDS011;2782;52.362;10.012;2023-04-06T00:14:19;2.07;;;1.27;;
5519;SDS011;2782;52.362;10.012;2023-04-06T00:15:20;1.30;;;1.20;;
5519;SDS011;2782;52.362;10.012;2023-04-06T00:16:21;1.53;;;1.43;;
5519;SDS011;2782;52.362;10.012;2023-04-06T00:17:22;1.92;;;1.35;;
5519;SDS011;2782;52.362;10.012;2023-04-06T00:18:23;1.73;;;1.47;;
5519;SDS011;2782;52.362;10.012;2023-04-06T00:19:25;2.95;;;1.75;;
5519;SDS011;2782;52.362;10.012;2023-04-06T00:20:26;1.60;;;1.50;;
5519;SDS011;2782;52.362;10.012;2023-04-06T00:21:28;1.38;;;1.20;;
5519;SDS011;2782;52.362;10.012;2023-04-06T00:22:29;1.98;;;1.33;;
5519;SDS011;2782;52.362;10.012;2023-04-06T00:23:32;2.55;;;1.65;;
5519;SDS011;2782;52.362;10.012;2023-04-06T00:24:32;2.83;;;1.50;;
5519;SDS011;2782;52.362;10.012;2023-04-06T00:25:34;1.90;;;1.30;;
5519;SDS011;2782;52.362;10.012;2023-04-06T00:26:35;1.93;;;1.50;;
5519;SDS011;2782;52.362;10.012;2023-04-06T00:27:36;1.90;;;1.40;;
5519;SDS011;2782;52.362;10.012;2023-04-06T00:28:37;1.97;;;1.20;;
5519;SDS011;2782;52.362;10.012;2023-04-06T00:29:39;1.55;;;1.40;;
5519;SDS011;2782;52.362;10.012;2023-04-06T00:30:40;2.80;;;1.20;;
5519;SDS011;2782;52.362;10.012;2023-04-06T00:31:42;1.75;;;1.42;;
5519;SDS011;2782;52.362;10.012;2023-04-06T00:32:43;3.37;;;1.63;;
5519;SDS011;2782;52.362;10.012;2023-04-06T00:33:44;1.50;;;1.40;;
5519;SDS011;2782;52.362;10.012;2023-04-06T00:34:45;1.50;;;1.37;;
5519;SDS011;2782;52.362;10.012;2023-04-06T00:35:47;1.25;;;1.05;;
5519;SDS011;2782;52.362;10.012;2023-04-06T00:36:48;1.80;;;1.30;;
5519;SDS011;2782;52.362;10.012;2023-04-06T00:37:50;2.15;;;1.23;;
5519;SDS011;2782;52.362;10.012;2023-04-06T00:38:52;1.30;;;1.00;;
5519;SDS011;2782;52.362;10.012;2023-04-06T00:39:54;1.58;;;1.33;;
5519;SDS011;2782;52.362;10.012;2023-04-06T00:40:55;1.30;;;1.10;;
5519;SDS011;2782;52.362;10.012;2023-04-06T00:41:56;1.48;;;1.38;;
5519;SDS011;2782;52.362;10.012;2023-04-06T00:42:57;1.45;;;1.35;;
5519;SDS011;2782;52.362;10.012;2023-04-06T00:43:59;1.45;;;1.00;;
5519;SDS011;2782;52.362;10.012;2023-04-06T00:45:00;1.57;;;0.87;;
5519;SDS011;2782;52.362;10.012;2023-04-06T00:46:02;1.40;;;1.30;;
5519;SDS011;2782;52.362;10.012;2023-04-06T00:47:03;1.70;;;1.40;;
5519;SDS011;2782;52.362;10.012;2023-04-06T00:48:05;2.90;;;1.42;;
5519;SDS011;2782;52.362;10.012;2023-04-06T00:49:06;1.70;;;1.40;;
5519;SDS011;2782;52.362;10.012;2023-04-06T00:50:07;1.73;;;1.45;;
5519;SDS011;2782;52.362;10.012;2023-04-06T00:51:08;2.63;;;1.40;;
5519;SDS011;2782;52.362;10.012;2023-04-06T00:52:10;1.63;;;1.38;;
5519;SDS011;2782;52.362;10.012;2023-04-06T00:53:10;1.27;;;1.03;;
5519;SDS011;2782;52.362;10.012;2023-04-06T00:54:13;1.50;;;0.95;;
5519;SDS011;2782;52.362;10.012;2023-04-06T00:55:14;1.55;;;0.90;;
5519;SDS011;2782;52.362;10.012;2023-04-06T00:56:16;2.28;;;1.30;;
5519;SDS011;2782;52.362;10.012;2023-04-06T00:57:17;1.10;;;1.00;;
5519;SDS011;2782;52.362;10.012;2023-04-06T00:58:18;1.70;;;0.90;;
5519;SDS011;2782;52.362;10.012;2023-04-06T00:59:19;4.10;;;1.20;;
5519;SDS011;2782;52.362;10.012;2023-04-06T01:00:21;1.40;;;1.35;;
5519;SDS011;2782;52.362;10.012;2023-04-06T01:01:22;1.30;;;1.20;;
5519;SDS011;2782;52.362;10.012;2023-04-06T01:02:24;1.88;;;1.02;;
5519;SDS011;2782;52.362;10.012;2023-04-06T01:03:25;2.50;;;1.30;;
5519;SDS011;2782;52.362;10.012;2023-04-06T01:04:27;1.98;;;1.30;;
5519;SDS011;2782;52.362;10.012;2023-04-06T01:05:28;2.33;;;1.20;;
5519;SDS011;2782;52.362;10.012;2023-04-06T01:06:29;1.65;;;1.30;;
5519;SDS011;2782;52.362;10.012;2023-04-06T01:07:30;1.57;;;0.97;;
5519;SDS011;2782;52.362;10.012;2023-04-06T01:08:31;1.65;;;1.50;;
5519;SDS011;2782;52.362;10.012;2023-04-06T01:09:33;1.53;;;0.97;;
5519;SDS011;2782;52.362;10.012;2023-04-06T01:10:35;1.00;;;1.00;;
5519;SDS011;2782;52.362;10.012;2023-04-06T01:11:36;1.07;;;0.97;;
5519;SDS011;2782;52.362;10.012;2023-04-06T01:12:38;1.50;;;1.40;;
5519;SDS011;2782;52.362;10.012;2023-04-06T01:13:39;1.20;;;1.10;;
5519;SDS011;2782;52.362;10.012;2023-04-06T01:14:41;1.35;;;1.23;;
5519;SDS011;2782;52.362;10.012;2023-04-06T01:15:42;1.88;;;1.17;;
5519;SDS011;2782;52.362;10.012;2023-04-06T01:16:43;1.87;;;1.13;;
5519;SDS011;2782;52.362;10.012;2023-04-06T01:17:45;1.40;;;1.30;;
5519;SDS011;2782;52.362;10.012;2023-04-06T01:18:45;1.40;;;1.30;;
5519;SDS011;2782;52.362;10.012;2023-04-06T01:19:47;1.52;;;1.42;;
5519;SDS011;2782;52.362;10.012;2023-04-06T01:20:49;1.40;;;1.30;;
5519;SDS011;2782;52.362;10.012;2023-04-06T01:21:51;2.35;;;1.40;;
5519;SDS011;2782;52.362;10.012;2023-04-06T01:22:54;1.30;;;1.20;;
5519;SDS011;2782;52.362;10.012;2023-04-06T01:23:56;1.65;;;1.30;;
5519;SDS011;2782;52.362;10.012;2023-04-06T01:24:56;2.50;;;1.53;;
5519;SDS011;2782;52.362;10.012;2023-04-06T01:25:58;2.55;;;1.30;;
5519;SDS011;2782;52.362;10.012;2023-04-06T01:26:59;1.53;;;1.20;;
5519;SDS011;2782;52.362;10.012;2023-04-06T01:28:01;2.88;;;1.67;;
5519;SDS011;2782;52.362;10.012;2023-04-06T01:29:02;2.40;;;1.50;;
5519;SDS011;2782;52.362;10.012;2023-04-06T01:30:04;1.40;;;1.30;;
5519;SDS011;2782;52.362;10.012;2023-04-06T01:31:07;2.00;;;1.75;;
5519;SDS011;2782;52.362;10.012;2023-04-06T01:32:09;1.30;;;1.20;;
5519;SDS011;2782;52.362;10.012;2023-04-06T01:33:10;3.77;;;1.50;;
5519;SDS011;2782;52.362;10.012;2023-04-06T01:34:11;1.75;;;1.65;;
5519;SDS011;2782;52.362;10.012;2023-04-06T01:35:12;1.70;;;1.60;;
5519;SDS011;2782;52.362;10.012;2023-04-06T01:36:15;1.40;;;1.30;;
5519;SDS011;2782;52.362;10.012;2023-04-06T01:37:16;1.80;;;1.70;;
5519;SDS011;2782;52.362;10.012;2023-04-06T01:38:19;1.25;;;1.15;;
5519;SDS011;2782;52.362;10.012;2023-04-06T01:39:20;2.05;;;1.60;;
5519;SDS011;2782;52.362;10.012;2023-04-06T01:40:21;1.55;;;1.45;;
5519;SDS011;2782;52.362;10.012;2023-04-06T01:41:22;1.67;;;1.30;;
5519;SDS011;2782;52.362;10.012;2023-04-06T01:42:24;2.17;;;1.40;;
5519;SDS011;2782;52.362;10.012;2023-04-06T01:43:24;3.07;;;1.40;;
5519;SDS011;2782;52.362;10.012;2023-04-06T01:44:26;1.55;;;1.25;;
5519;SDS011;2782;52.362;10.012;2023-04-06T01:45:26;2.30;;;1.33;;
5519;SDS011;2782;52.362;10.012;2023-04-06T01:46:28;1.60;;;1.50;;
5519;SDS011;2782;52.362;10.012;2023-04-06T01:47:29;1.53;;;1.40;;
5519;SDS011;2782;52.362;10.012;2023-04-06T01:48:31;1.60;;;1.20;;
5519;SDS011;2782;52.362;10.012;2023-04-06T01:49:31;1.83;;;1.40;;
5519;SDS011;2782;52.362;10.012;2023-04-06T01:50:33;1.92;;;1.15;;
5519;SDS011;2782;52.362;10.012;2023-04-06T01:51:34;1.30;;;1.20;;
5519;SDS011;2782;52.362;10.012;2023-04-06T01:52:36;1.50;;;1.40;;
5519;SDS011;2782;52.362;10.012;2023-04-06T01:53:39;1.60;;;1.50;;
5519;SDS011;2782;52.362;10.012;2023-04-06T01:54:40;1.55;;;1.45;;
5519;SDS011;2782;52.362;10.012;2023-04-06T01:55:41;1.90;;;1.70;;
5519;SDS011;2782;52.362;10.012;2023-04-06T01:56:42;2.25;;;1.50;;
5519;SDS011;2782;52.362;10.012;2023-04-06T01:57:43;1.23;;;1.17;;
5519;SDS011;2782;52.362;10.012;2023-04-06T01:58:44;2.22;;;1.38;;
5519;SDS011;2782;52.362;10.012;2023-04-06T01:59:45;1.70;;;1.60;;
5519;SDS011;2782;52.362;10.012;2023-04-06T02:00:47;1.52;;;1.42;;
5519;SDS011;2782;52.362;10.012;2023-04-06T02:01:47;1.60;;;1.50;;
5519;SDS011;2782;52.362;10.012;2023-04-06T02:02:49;3.47;;;1.63;;
5519;SDS011;2782;52.362;10.012;2023-04-06T02:03:50;2.40;;;1.30;;
5519;SDS011;2782;52.362;10.012;2023-04-06T02:04:51;2.15;;;1.80;;
5519;SDS011;2782;52.362;10.012;2023-04-06T02:05:52;1.47;;;1.37;;
5519;SDS011;2782;52.362;10.012;2023-04-06T02:06:53;1.70;;;1.60;;
5519;SDS011;2782;52.362;10.012;2023-04-06T02:07:54;1.30;;;1.20;;
5519;SDS011;2782;52.362;10.012;2023-04-06T02:08:57;2.28;;;1.42;;
5519;SDS011;2782;52.362;10.012;2023-04-06T02:09:58;1.45;;;1.35;;
5519;SDS011;2782;52.362;10.012;2023-04-06T02:10:59;1.98;;;1.77;;
5519;SDS011;2782;52.362;10.012;2023-04-06T02:12:00;1.80;;;1.63;;
5519;SDS011;2782;52.362;10.012;2023-04-06T02:13:02;1.45;;;1.35;;
5519;SDS011;2782;52.362;10.012;2023-04-06T02:14:02;1.30;;;1.20;;
5519;SDS011;2782;52.362;10.012;2023-04-06T02:15:05;1.60;;;1.50;;
5519;SDS011;2782;52.362;10.012;2023-04-06T02:16:06;2.03;;;1.55;;
5519;SDS011;2782;52.362;10.012;2023-04-06T02:17:08;1.90;;;1.30;;
5519;SDS011;2782;52.362;10.012;2023-04-06T02:18:08;1.27;;;1.27;;
5519;SDS011;2782;52.362;10.012;2023-04-06T02:19:10;3.28;;;1.60;;
5519;SDS011;2782;52.362;10.012;2023-04-06T02:20:11;2.37;;;1.60;;
5519;SDS011;2782;52.362;10.012;2023-04-06T02:21:13;1.52;;;1.35;;
5519;SDS011;2782;52.362;10.012;2023-04-06T02:22:13;1.83;;;1.73;;
5519;SDS011;2782;52.362;10.012;2023-04-06T02:23:15;1.63;;;1.50;;
5519;SDS011;2782;52.362;10.012;2023-04-06T02:24:17;1.97;;;1.67;;
5519;SDS011;2782;52.362;10.012;2023-04-06T02:25:19;1.92;;;1.83;;
5519;SDS011;2782;52.362;10.012;2023-04-06T02:26:20;1.60;;;1.50;;
5519;SDS011;2782;52.362;10.012;2023-04-06T02:27:21;1.67;;;1.58;;
5519;SDS011;2782;52.362;10.012;2023-04-06T02:28:22;1.67;;;1.30;;
5519;SDS011;2782;52.362;10.012;2023-04-06T02:29:23;2.45;;;1.45;;
5519;SDS011;2782;52.362;10.012;2023-04-06T02:30:24;1.77;;;1.67;;
5519;SDS011;2782;52.362;10.012;2023-04-06T02:31:25;1.70;;;1.60;;
5519;SDS011;2782;52.362;10.012;2023-04-06T02:32:26;1.40;;;1.30;;
5519;SDS011;2782;52.362;10.012;2023-04-06T02:33:28;1.40;;;1.27;;
5519;SDS011;2782;52.362;10.012;2023-04-06T02:34:28;1.40;;;1.20;;
5519;SDS011;2782;52.362;10.012;2023-04-06T02:35:30;1.60;;;1.42;;
5519;SDS011;2782;52.362;10.012;2023-04-06T02:36:31;1.35;;;1.25;;
5519;SDS011;2782;52.362;10.012;2023-04-06T02:37:33;2.00;;;1.90;;
5519;SDS011;2782;52.362;10.012;2023-04-06T02:38:33;2.03;;;1.87;;
5519;SDS011;2782;52.362;10.012;2023-04-06T02:39:36;1.90;;;1.80;;
5519;SDS011;2782;52.362;10.012;2023-04-06T02:40:37;1.77;;;1.60;;
5519;SDS011;2782;52.362;10.012;2023-04-06T02:41:38;1.30;;;1.15;;
5519;SDS011;2782;52.362;10.012;2023-04-06T02:42:39;1.53;;;1.43;;
5519;SDS011;2782;52.362;10.012;2023-04-06T02:43:41;1.60;;;1.50;;
5519;SDS011;2782;52.362;10.012;2023-04-06T02:44:41;1.80;;;1.70;;
5519;SDS011;2782;52.362;10.012;2023-04-06T02:45:43;1.40;;;1.35;;
5519;SDS011;2782;52.362;10.012;2023-04-06T02:46:43;2.90;;;1.50;;
5519;SDS011;2782;52.362;10.012;2023-04-06T02:47:45;3.17;;;1.58;;
5519;SDS011;2782;52.362;10.012;2023-04-06T02:48:46;1.40;;;1.30;;
5519;SDS011;2782;52.362;10.012;2023-04-06T02:49:48;1.80;;;1.70;;
5519;SDS011;2782;52.362;10.012;2023-04-06T02:50:48;2.00;;;1.57;;
5519;SDS011;2782;52.362;10.012;2023-04-06T02:51:50;1.50;;;1.40;;
5519;SDS011;2782;52.362;10.012;2023-04-06T02:52:52;1.40;;;1.30;;
5519;SDS011;2782;52.362;10.012;2023-04-06T02:53:54;1.45;;;1.35;;
5519;SDS011;2782;52.362;10.012;2023-04-06T02:54:56;1.83;;;1.73;;
5519;SDS011;2782;52.362;10.012;2023-04-06T02:55:58;2.30;;;1.30;;
5519;SDS011;2782;52.362;10.012;2023-04-06T02:56:58;1.43;;;1.33;;
5519;SDS011;2782;52.362;10.012;2023-04-06T02:58:00;1.33;;;1.23;;
5519;SDS011;2782;52.362;10.012;2023-04-06T02:59:01;1.90;;;1.80;;
5519;SDS011;2782;52.362;10.012;2023-04-06T03:00:03;1.50;;;1.40;;
5519;SDS011;2782;52.362;10.012;2023-04-06T03:01:04;1.70;;;1.30;;
5519;SDS011;2782;52.362;10.012;2023-04-06T03:02:06;1.60;;;1.50;;
5519;SDS011;2782;52.362;10.012;2023-04-06T03:03:06;2.20;;;1.23;;
5519;SDS011;2782;52.362;10.012;2023-04-06T03:04:08;1.70;;;1.60;;
5519;SDS011;2782;52.362;10.012;2023-04-06T03:05:08;1.60;;;1.50;;
5519;SDS011;2782;52.362;10.012;2023-04-06T03:06:10;1.55;;;1.45;;
5519;SDS011;2782;52.362;10.012;2023-04-06T03:07:11;2.00;;;1.80;;
5519;SDS011;2782;52.362;10.012;2023-04-06T03:08:12;3.30;;;1.60;;
5519;SDS011;2782;52.362;10.012;2023-04-06T03:09:13;1.60;;;1.50;;
5519;SDS011;2782;52.362;10.012;2023-04-06T03:10:16;1.27;;;1.17;;
5519;SDS011;2782;52.362;10.012;2023-04-06T03:11:17;1.88;;;1.77;;
5519;SDS011;2782;52.362;10.012;2023-04-06T03:12:18;1.55;;;1.45;;
5519;SDS011;2782;52.362;10.012;2023-04-06T03:13:19;1.27;;;1.20;;
5519;SDS011;2782;52.362;10.012;2023-04-06T03:14:21;1.70;;;1.60;;
5519;SDS011;2782;52.362;10.012;2023-04-06T03:15:22;1.50;;;1.40;;
5519;SDS011;2782;52.362;10.012;2023-04-06T03:16:23;1.98;;;1.50;;
5519;SDS011;2782;52.362;10.012;2023-04-06T03:17:24;2.07;;;1.50;;
5519;SDS011;2782;52.362;10.012;2023-04-06T03:18:25;2.05;;;1.60;;
5519;SDS011;2782;52.362;10.012;2023-04-06T03:19:26;1.77;;;1.67;;
5519;SDS011;2782;52.362;10.012;2023-04-06T03:20:28;2.65;;;2.00;;
5519;SDS011;2782;52.362;10.012;2023-04-06T03:21:29;1.47;;;1.37;;
5519;SDS011;2782;52.362;10.012;2023-04-06T03:22:30;1.60;;;1.50;;
5519;SDS011;2782;52.362;10.012;2023-04-06T03:23:31;1.70;;;1.60;;
5519;SDS011;2782;52.362;10.012;2023-04-06T03:24:32;1.60;;;1.50;;
5519;SDS011;2782;52.362;10.012;2023-04-06T03:25:34;1.97;;;1.77;;
5519;SDS011;2782;52.362;10.012;2023-04-06T03:26:36;1.50;;;1.40;;
5519;SDS011;2782;52.362;10.012;2023-04-06T03:27:36;2.70;;;1.90;;
5519;SDS011;2782;52.362;10.012;2023-04-06T03:28:38;1.60;;;1.50;;
5519;SDS011;2782;52.362;10.012;2023-04-06T03:29:39;1.73;;;1.40;;
5519;SDS011;2782;52.362;10.012;2023-04-06T03:30:40;1.65;;;1.55;;
5519;SDS011;2782;52.362;10.012;2023-04-06T03:31:41;2.00;;;1.90;;
5519;SDS011;2782;52.362;10.012;2023-04-06T03:32:43;1.50;;;1.40;;
5519;SDS011;2782;52.362;10.012;2023-04-06T03:33:43;1.73;;;1.40;;
5519;SDS011;2782;52.362;10.012;2023-04-06T03:34:45;1.38;;;1.27;;
5519;SDS011;2782;52.362;10.012;2023-04-06T03:35:45;1.83;;;1.60;;
5519;SDS011;2782;52.362;10.012;2023-04-06T03:36:47;1.52;;;1.42;;
5519;SDS011;2782;52.362;10.012;2023-04-06T03:37:49;2.08;;;1.85;;
5519;SDS011;2782;52.362;10.012;2023-04-06T03:38:50;1.60;;;1.50;;
5519;SDS011;2782;52.362;10.012;2023-04-06T03:39:53;1.98;;;1.50;;
5519;SDS011;2782;52.362;10.012;2023-04-06T03:40:55;2.57;;;1.60;;
5519;SDS011;2782;52.362;10.012;2023-04-06T03:41:57;1.45;;;1.35;;
5519;SDS011;2782;52.362;10.012;2023-04-06T03:42:57;2.10;;;1.40;;
5519;SDS011;2782;52.362;10.012;2023-04-06T03:43:59;1.35;;;1.35;;
5519;SDS011;2782;52.362;10.012;2023-04-06T03:44:59;1.53;;;1.43;;
5519;SDS011;2782;52.362;10.012;2023-04-06T03:46:01;1.15;;;1.05;;
5519;SDS011;2782;52.362;10.012;2023-04-06T03:47:02;1.53;;;1.20;;
5519;SDS011;2782;52.362;10.012;2023-04-06T03:48:04;1.50;;;1.40;;
5519;SDS011;2782;52.362;10.012;2023-04-06T03:49:05;1.38;;;1.27;;
5519;SDS011;2782;52.362;10.012;2023-04-06T03:50:07;1.85;;;1.50;;
5519;SDS011;2782;52.362;10.012;2023-04-06T03:51:08;1.50;;;1.20;;
5519;SDS011;2782;52.362;10.012;2023-04-06T03:52:10;1.95;;;1.30;;
5519;SDS011;2782;52.362;10.012;2023-04-06T03:53:11;1.88;;;1.77;;
5519;SDS011;2782;52.362;10.012;2023-04-06T03:54:12;1.50;;;1.40;;
5519;SDS011;2782;52.362;10.012;2023-04-06T03:55:13;1.30;;;1.20;;
5519;SDS011;2782;52.362;10.012;2023-04-06T03:56:16;1.50;;;1.40;;
5519;SDS011;2782;52.362;10.012;2023-04-06T03:57:16;1.23;;;1.00;;
5519;SDS011;2782;52.362;10.012;2023-04-06T03:58:18;1.60;;;1.40;;
5519;SDS011;2782;52.362;10.012;2023-04-06T03:59:19;1.20;;;1.20;;
5519;SDS011;2782;52.362;10.012;2023-04-06T04:00:21;1.30;;;1.20;;
5519;SDS011;2782;52.362;10.012;2023-04-06T04:01:21;1.00;;;1.00;;
5519;SDS011;2782;52.362;10.012;2023-04-06T04:02:23;1.70;;;1.30;;
5519;SDS011;2782;52.362;10.012;2023-04-06T04:03:24;1.47;;;0.90;;
5519;SDS011;2782;52.362;10.012;2023-04-06T04:04:27;1.23;;;1.13;;
5519;SDS011;2782;52.362;10.012;2023-04-06T04:05:28;1.53;;;1.43;;
5519;SDS011;2782;52.362;10.012;2023-04-06T04:06:29;1.45;;;1.30;;
5519;SDS011;2782;52.362;10.012;2023-04-06T04:07:30;1.57;;;1.40;;
5519;SDS011;2782;52.362;10.012;2023-04-06T04:08:32;0.90;;;0.90;;
5519;SDS011;2782;52.362;10.012;2023-04-06T04:09:32;2.03;;;1.10;;
5519;SDS011;2782;52.362;10.012;2023-04-06T04:10:34;1.38;;;1.27;;
5519;SDS011;2782;52.362;10.012;2023-04-06T04:11:36;1.07;;;1.07;;
5519;SDS011;2782;52.362;10.012;2023-04-06T04:12:37;1.70;;;0.93;;
5519;SDS011;2782;52.362;10.012;2023-04-06T04:13:38;1.07;;;1.00;;
5519;SDS011;2782;52.362;10.012;2023-04-06T04:14:40;1.27;;;1.17;;
5519;SDS011;2782;52.362;10.012;2023-04-06T04:15:40;1.20;;;1.10;;
5519;SDS011;2782;52.362;10.012;2023-04-06T04:16:42;1.83;;;1.00;;
5519;SDS011;2782;52.362;10.012;2023-04-06T04:17:43;1.00;;;0.90;;
5519;SDS011;2782;52.362;10.012;2023-04-06T04:18:46;1.13;;;1.02;;
5519;SDS011;2782;52.362;10.012;2023-04-06T04:19:48;0.70;;;0.70;;
5519;SDS011;2782;52.362;10.012;2023-04-06T04:20:49;1.43;;;1.33;;
5519;SDS011;2782;52.362;10.012;2023-04-06T04:21:51;3.83;;;0.93;;
5519;SDS011;2782;52.362;10.012;2023-04-06T04:22:51;1.60;;;0.90;;
5519;SDS011;2782;52.362;10.012;2023-04-06T04:23:53;0.80;;;0.70;;
5519;SDS011;2782;52.362;10.012;2023-04-06T04:24:53;0.97;;;0.70;;
5519;SDS011;2782;52.362;10.012;2023-04-06T04:25:55;0.80;;;0.75;;
5519;SDS011;2782;52.362;10.012;2023-04-06T04:26:57;0.83;;;0.83;;
5519;SDS011;2782;52.362;10.012;2023-04-06T04:27:58;1.15;;;0.88;;
5519;SDS011;2782;52.362;10.012;2023-04-06T04:28:59;1.00;;;0.90;;
5519;SDS011;2782;52.362;10.012;2023-04-06T04:30:00;1.27;;;0.90;;
5519;SDS011;2782;52.362;10.012;2023-04-06T04:31:01;1.17;;;1.07;;
5519;SDS011;2782;52.362;10.012;2023-04-06T04:32:03;0.80;;;0.77;;
5519;SDS011;2782;52.362;10.012;2023-04-06T04:33:04;1.65;;;1.20;;
5519;SDS011;2782;52.362;10.012;2023-04-06T04:34:05;0.93;;;0.80;;
5519;SDS011;2782;52.362;10.012;2023-04-06T04:35:07;1.10;;;0.70;;
5519;SDS011;2782;52.362;10.012;2023-04-06T04:36:09;0.70;;;0.70;;
5519;SDS011;2782;52.362;10.012;2023-04-06T04:37:10;1.13;;;1.03;;
5519;SDS011;2782;52.362;10.012;2023-04-06T04:38:11;0.95;;;0.88;;
5519;SDS011;2782;52.362;10.012;2023-04-06T04:39:12;0.97;;;0.90;;
5519;SDS011;2782;52.362;10.012;2023-04-06T04:40:14;0.88;;;0.80;;
5519;SDS011;2782;52.362;10.012;2023-04-06T04:41:15;1.05;;;0.95;;
5519;SDS011;2782;52.362;10.012;2023-04-06T04:42:18;1.08;;;0.98;;
5519;SDS011;2782;52.362;10.012;2023-04-06T04:43:19;0.80;;;0.80;;
5519;SDS011;2782;52.362;10.012;2023-04-06T04:44:20;1.10;;;0.90;;
5519;SDS011;2782;52.362;10.012;2023-04-06T04:45:21;1.67;;;0.90;;
5519;SDS011;2782;52.362;10.012;2023-04-06T04:46:23;1.02;;;0.93;;
5519;SDS011;2782;52.362;10.012;2023-04-06T04:47:23;0.70;;;0.70;;
5519;SDS011;2782;52.362;10.012;2023-04-06T04:48:25;1.05;;;0.95;;
5519;SDS011;2782;52.362;10.012;2023-04-06T04:49:26;1.70;;;0.83;;
5519;SDS011;2782;52.362;10.012;2023-04-06T04:50:27;1.15;;;0.70;;
5519;SDS011;2782;52.362;10.012;2023-04-06T04:51:28;0.70;;;0.60;;
5519;SDS011;2782;52.362;10.012;2023-04-06T04:52:30;1.00;;;0.80;;
5519;SDS011;2782;52.362;10.012;2023-04-06T04:53:30;1.33;;;0.90;;
5519;SDS011;2782;52.362;10.012;2023-04-06T04:54:32;0.98;;;0.80;;
5519;SDS011;2782;52.362;10.012;2023-04-06T04:55:33;0.97;;;0.87;;
5519;SDS011;2782;52.362;10.012;2023-04-06T04:56:34;1.30;;;1.20;;
5519;SDS011;2782;52.362;10.012;2023-04-06T04:57:36;1.33;;;1.07;;
5519;SDS011;2782;52.362;10.012;2023-04-06T04:58:38;1.05;;;1.00;;
5519;SDS011;2782;52.362;10.012;2023-04-06T04:59:38;0.80;;;0.80;;
5519;SDS011;2782;52.362;10.012;2023-04-06T05:00:40;1.42;;;0.90;;
5519;SDS011;2782;52.362;10.012;2023-04-06T05:01:41;2.20;;;1.00;;
5519;SDS011;2782;52.362;10.012;2023-04-06T05:02:42;0.90;;;0.60;;
5519;SDS011;2782;52.362;10.012;2023-04-06T05:03:43;0.80;;;0.73;;
5519;SDS011;2782;52.362;10.012;2023-04-06T05:04:45;1.77;;;0.70;;
5519;SDS011;2782;52.362;10.012;2023-04-06T05:05:45;1.33;;;0.80;;
5519;SDS011;2782;52.362;10.012;2023-04-06T05:06:47;1.90;;;0.80;;
5519;SDS011;2782;52.362;10.012;2023-04-06T05:07:48;1.17;;;1.00;;
5519;SDS011;2782;52.362;10.012;2023-04-06T05:08:49;1.20;;;1.10;;
5519;SDS011;2782;52.362;10.012;2023-04-06T05:09:50;1.10;;;1.00;;
5519;SDS011;2782;52.362;10.012;2023-04-06T05:10:52;1.20;;;0.80;;
5519;SDS011;2782;52.362;10.012;2023-04-06T05:11:53;1.20;;;0.80;;
5519;SDS011;2782;52.362;10.012;2023-04-06T05:12:56;0.75;;;0.60;;
5519;SDS011;2782;52.362;10.012;2023-04-06T05:13:56;1.27;;;0.65;;
5519;SDS011;2782;52.362;10.012;2023-04-06T05:14:58;1.50;;;0.95;;
5519;SDS011;2782;52.362;10.012;2023-04-06T05:15:59;0.80;;;0.53;;
5519;SDS011;2782;52.362;10.012;2023-04-06T05:17:01;0.60;;;0.55;;
5519;SDS011;2782;52.362;10.012;2023-04-06T05:18:01;0.63;;;0.63;;
5519;SDS011;2782;52.362;10.012;2023-04-06T05:19:03;0.80;;;0.50;;
5519;SDS011;2782;52.362;10.012;2023-04-06T05:20:04;1.07;;;0.77;;
5519;SDS011;2782;52.362;10.012;2023-04-06T05:21:07;0.95;;;0.85;;
5519;SDS011;2782;52.362;10.012;2023-04-06T05:22:08;0.63;;;0.63;;
5519;SDS011;2782;52.362;10.012;2023-04-06T05:23:09;0.70;;;0.60;;
5519;SDS011;2782;52.362;10.012;2023-04-06T05:24:10;1.43;;;0.87;;
5519;SDS011;2782;52.362;10.012;2023-04-06T05:25:12;1.88;;;0.80;;
5519;SDS011;2782;52.362;10.012;2023-04-06T05:26:13;0.80;;;0.63;;
5519;SDS011;2782;52.362;10.012;2023-04-06T05:27:14;0.82;;;0.55;;
5519;SDS011;2782;52.362;10.012;2023-04-06T05:28:17;0.95;;;0.68;;
5519;SDS011;2782;52.362;10.012;2023-04-06T05:29:19;0.88;;;0.70;;
5519;SDS011;2782;52.362;10.012;2023-04-06T05:30:20;0.98;;;0.60;;
5519;SDS011;2782;52.362;10.012;2023-04-06T05:31:22;0.80;;;0.80;;
5519;SDS011;2782;52.362;10.012;2023-04-06T05:32:22;0.90;;;0.70;;
5519;SDS011;2782;52.362;10.012;2023-04-06T05:33:25;2.25;;;1.02;;
5519;SDS011;2782;52.362;10.012;2023-04-06T05:34:26;1.95;;;0.82;;
5519;SDS011;2782;52.362;10.012;2023-04-06T05:35:27;1.20;;;0.85;;
5519;SDS011;2782;52.362;10.012;2023-04-06T05:36:29;1.47;;;0.90;;
5519;SDS011;2782;52.362;10.012;2023-04-06T05:37:32;0.60;;;0.60;;
5519;SDS011;2782;52.362;10.012;2023-04-06T05:38:33;1.00;;;0.70;;
5519;SDS011;2782;52.362;10.012;2023-04-06T05:39:34;1.20;;;0.97;;
5519;SDS011;2782;52.362;10.012;2023-04-06T05:40:35;1.27;;;1.15;;
5519;SDS011;2782;52.362;10.012;2023-04-06T05:41:37;4.07;;;1.70;;
5519;SDS011;2782;52.362;10.012;2023-04-06T05:42:39;2.22;;;1.65;;
5519;SDS011;2782;52.362;10.012;2023-04-06T05:43:42;4.35;;;1.95;;
5519;SDS011;2782;52.362;10.012;2023-04-06T05:44:43;11.25;;;2.85;;
5519;SDS011;2782;52.362;10.012;2023-04-06T05:45:44;8.60;;;2.63;;
5519;SDS011;2782;52.362;10.012;2023-04-06T05:46:46;2.47;;;1.55;;
5519;SDS011;2782;52.362;10.012;2023-04-06T05:47:47;2.53;;;1.90;;
5519;SDS011;2782;52.362;10.012;2023-04-06T05:48:48;2.10;;;1.50;;
5519;SDS011;2782;52.362;10.012;2023-04-06T05:49:49;3.73;;;1.40;;
5519;SDS011;2782;52.362;10.012;2023-04-06T05:50:50;3.05;;;1.52;;
5519;SDS011;2782;52.362;10.012;2023-04-06T05:51:51;3.23;;;2.00;;
5519;SDS011;2782;52.362;10.012;2023-04-06T05:52:53;3.40;;;1.70;;
5519;SDS011;2782;52.362;10.012;2023-04-06T05:53:53;1.53;;;1.43;;
5519;SDS011;2782;52.362;10.012;2023-04-06T05:54:55;3.80;;;1.90;;
5519;SDS011;2782;52.362;10.012;2023-04-06T05:55:55;8.27;;;1.93;;
5519;SDS011;2782;52.362;10.012;2023-04-06T05:56:57;4.40;;;1.70;;
5519;SDS011;2782;52.362;10.012;2023-04-06T05:57:58;4.57;;;1.97;;
5519;SDS011;2782;52.362;10.012;2023-04-06T05:59:01;2.35;;;1.70;;
5519;SDS011;2782;52.362;10.012;2023-04-06T06:00:01;2.72;;;1.30;;
5519;SDS011;2782;52.362;10.012;2023-04-06T06:01:04;1.45;;;1.35;;
5519;SDS011;2782;52.362;10.012;2023-04-06T06:02:05;2.13;;;1.50;;
5519;SDS011;2782;52.362;10.012;2023-04-06T06:03:06;4.10;;;1.95;;
5519;SDS011;2782;52.362;10.012;2023-04-06T06:04:08;4.07;;;1.70;;
5519;SDS011;2782;52.362;10.012;2023-04-06T06:05:10;2.28;;;1.48;;
5519;SDS011;2782;52.362;10.012;2023-04-06T06:06:10;4.63;;;1.87;;
5519;SDS011;2782;52.362;10.012;2023-04-06T06:07:12;2.15;;;1.50;;
5519;SDS011;2782;52.362;10.012;2023-04-06T06:08:13;4.93;;;1.70;;
5519;SDS011;2782;52.362;10.012;2023-04-06T06:09:15;2.10;;;1.50;;
5519;SDS011;2782;52.362;10.012;2023-04-06T06:10:17;2.53;;;1.60;;
5519;SDS011;2782;52.362;10.012;2023-04-06T06:11:17;3.00;;;1.40;;
5519;SDS011;2782;52.362;10.012;2023-04-06T06:12:19;1.90;;;1.52;;
5519;SDS011;2782;52.362;10.012;2023-04-06T06:13:20;2.50;;;1.60;;
5519;SDS011;2782;52.362;10.012;2023-04-06T06:14:23;2.83;;;1.50;;
5519;SDS011;2782;52.362;10.012;2023-04-06T06:15:23;4.90;;;1.83;;